createdAt,value
2023-06-07T00:00:02.580Z,92.46
2023-06-07T00:02:42.316Z,92.73
2023-06-07T00:05:11.915Z,92.97
2023-06-07T00:07:39.597Z,93.15
2023-06-07T00:10:08.047Z,93.46
2023-06-07T00:12:35.902Z,93.87
2023-06-07T00:15:03.591Z,93.73
2023-06-07T00:17:31.568Z,94.01
2023-06-07T00:19:59.012Z,94.30
2023-06-07T00:22:26.641Z,94.22
2023-06-07T00:24:55.056Z,94.46
2023-06-07T00:27:22.708Z,94.64
2023-06-07T00:29:49.970Z,94.60
2023-06-07T00:32:17.682Z,94.80
2023-06-07T00:34:45.033Z,94.89
2023-06-07T00:37:12.669Z,94.62
2023-06-07T00:39:39.949Z,94.56
2023-06-07T00:42:07.952Z,94.20
2023-06-07T00:44:35.403Z,94.33
2023-06-07T00:47:03.872Z,94.07
2023-06-07T00:49:31.844Z,94.36
2023-06-07T00:51:59.790Z,94.07
2023-06-07T00:54:28.980Z,93.37
2023-06-07T00:56:56.913Z,93.28
2023-06-07T00:59:24.426Z,92.85
2023-06-07T01:01:56.977Z,93.10
2023-06-07T01:04:25.816Z,92.92
2023-06-07T01:06:53.727Z,92.83
2023-06-07T01:09:22.941Z,92.48
2023-06-07T01:11:54.527Z,92.70
2023-06-07T01:14:23.541Z,92.52
2023-06-07T01:16:54.323Z,92.28
2023-06-07T01:19:35.832Z,92.15
2023-06-07T01:22:09.309Z,92.58
2023-06-07T01:24:38.690Z,92.50
2023-06-07T01:27:08.410Z,92.28
2023-06-07T01:29:36.248Z,92.84
2023-06-07T01:32:09.256Z,92.75
2023-06-07T01:34:37.851Z,92.25
2023-06-07T01:37:06.983Z,92.27
2023-06-07T01:39:35.183Z,91.75
2023-06-07T01:42:04.624Z,92.00
2023-06-07T01:44:33.156Z,92.12
2023-06-07T01:47:00.815Z,91.80
2023-06-07T01:49:28.204Z,91.77
2023-06-07T01:51:55.858Z,92.02
2023-06-07T01:54:23.543Z,92.04
2023-06-07T01:57:04.717Z,91.99
2023-06-07T02:00:09.710Z,92.23
2023-06-07T02:03:28.239Z,92.67
2023-06-07T02:06:02.644Z,92.49
2023-06-07T02:08:43.082Z,92.46
2023-06-07T02:11:11.867Z,92.78
2023-06-07T02:13:44.624Z,92.85
2023-06-07T02:16:12.944Z,92.83
2023-06-07T02:18:42.234Z,92.54
2023-06-07T02:21:11.374Z,93.04
2023-06-07T02:23:39.777Z,92.86
2023-06-07T02:26:07.073Z,92.90
2023-06-07T02:28:34.592Z,93.11
2023-06-07T02:31:01.931Z,93.51
2023-06-07T02:33:29.638Z,93.79
2023-06-07T02:35:57.211Z,93.73
2023-06-07T02:38:24.917Z,93.50
2023-06-07T02:40:54.439Z,93.41
2023-06-07T02:43:22.032Z,93.57
2023-06-07T02:45:49.371Z,93.37
2023-06-07T02:48:17.646Z,93.33
2023-06-07T02:50:45.023Z,93.19
2023-06-07T02:53:12.580Z,93.40
2023-06-07T02:55:39.869Z,92.90
2023-06-07T02:58:08.334Z,93.12
2023-06-07T03:00:35.643Z,93.03
2023-06-07T03:03:06.649Z,93.18
2023-06-07T03:05:34.924Z,93.61
2023-06-07T03:08:03.827Z,93.10
2023-06-07T03:10:31.297Z,93.19
2023-06-07T03:12:58.858Z,92.77
2023-06-07T03:15:26.151Z,93.39
2023-06-07T03:17:53.757Z,93.45
2023-06-07T03:20:22.813Z,93.49
2023-06-07T03:22:50.493Z,92.86
2023-06-07T03:25:17.876Z,92.74
2023-06-07T03:27:46.613Z,92.45
2023-06-07T03:30:14.016Z,91.85
2023-06-07T03:32:42.293Z,91.67
2023-06-07T03:35:09.889Z,91.58
2023-06-07T03:37:37.469Z,91.21
2023-06-07T03:40:06.081Z,90.89
2023-06-07T03:42:33.852Z,90.60
2023-06-07T03:45:01.223Z,90.27
2023-06-07T03:47:29.434Z,90.43
2023-06-07T03:49:56.708Z,90.23
2023-06-07T03:52:24.303Z,89.85
2023-06-07T03:54:51.572Z,89.54
2023-06-07T03:57:19.212Z,89.46
2023-06-07T03:59:46.700Z,88.99
2023-06-07T04:02:14.237Z,88.88
2023-06-07T04:04:41.557Z,89.00
2023-06-07T04:07:09.968Z,88.76
2023-06-07T04:09:37.271Z,88.43
2023-06-07T04:12:06.777Z,88.14
2023-06-07T04:14:34.077Z,88.17
2023-06-07T04:17:02.077Z,87.92
2023-06-07T04:19:29.527Z,88.43
2023-06-07T04:21:57.116Z,88.73
2023-06-07T04:24:24.452Z,88.55
2023-06-07T04:26:54.550Z,88.08
2023-06-07T04:29:24.864Z,88.27
2023-06-07T04:31:58.071Z,88.17
2023-06-07T04:34:25.788Z,88.18
2023-06-07T04:36:54.058Z,87.96
2023-06-07T04:39:21.736Z,87.31
2023-06-07T04:41:50.383Z,87.46
2023-06-07T04:44:29.071Z,87.61
2023-06-07T04:47:05.162Z,87.33
2023-06-07T04:49:36.627Z,87.27
2023-06-07T04:52:06.851Z,86.95
2023-06-07T04:54:37.755Z,86.67
2023-06-07T04:57:10.106Z,86.24
2023-06-07T04:59:44.055Z,85.68
2023-06-07T05:02:12.272Z,85.30
2023-06-07T05:04:39.596Z,85.06
2023-06-07T05:07:15.016Z,85.02
2023-06-07T05:09:42.386Z,84.71
2023-06-07T05:12:10.244Z,84.88
2023-06-07T05:14:37.591Z,85.44
2023-06-07T05:17:06.757Z,85.28
2023-06-07T05:19:34.058Z,84.04
2023-06-07T05:22:01.664Z,83.88
2023-06-07T05:24:29.009Z,84.17
2023-06-07T05:26:56.635Z,83.13
2023-06-07T05:29:23.957Z,83.37
2023-06-07T05:31:51.617Z,82.97
2023-06-07T05:34:19.121Z,82.32
2023-06-07T05:36:46.721Z,82.22
2023-06-07T05:39:13.991Z,81.90
2023-06-07T05:41:41.669Z,82.01
2023-06-07T05:44:08.966Z,81.11
2023-06-07T05:46:36.513Z,81.26
2023-06-07T05:49:04.471Z,80.08
2023-06-07T05:51:32.494Z,79.75
2023-06-07T05:53:59.994Z,79.06
2023-06-07T05:56:29.019Z,78.65
2023-06-07T05:58:56.272Z,77.94
2023-06-07T06:01:23.997Z,77.44
2023-06-07T06:03:51.333Z,76.97
2023-06-07T06:06:19.663Z,76.42
2023-06-07T06:08:47.183Z,75.76
2023-06-07T06:11:15.384Z,75.02
2023-06-07T06:13:44.606Z,75.77
2023-06-07T06:16:13.072Z,75.51
2023-06-07T06:18:44.360Z,74.87
2023-06-07T06:21:11.921Z,73.40
2023-06-07T06:23:39.491Z,72.76
2023-06-07T06:26:07.160Z,72.16
2023-06-07T06:28:34.406Z,71.77
2023-06-07T06:31:04.383Z,72.00
2023-06-07T06:33:31.881Z,71.66
2023-06-07T06:36:00.706Z,70.72
2023-06-07T06:38:28.027Z,71.46
2023-06-07T06:40:55.618Z,70.80
2023-06-07T06:43:23.015Z,69.92
2023-06-07T06:45:50.615Z,69.18
2023-06-07T06:48:17.901Z,68.67
2023-06-07T06:50:48.154Z,68.22
2023-06-07T06:53:15.689Z,68.11
2023-06-07T06:55:43.239Z,68.26
2023-06-07T06:58:10.591Z,68.19
2023-06-07T07:00:41.121Z,68.52
2023-06-07T07:03:08.535Z,68.42
2023-06-07T07:05:36.325Z,68.60
2023-06-07T07:08:04.735Z,68.09
2023-06-07T07:10:32.360Z,67.92
2023-06-07T07:12:59.811Z,67.75
2023-06-07T07:15:28.972Z,66.98
2023-06-07T07:17:56.414Z,66.04
2023-06-07T07:20:24.220Z,65.52
2023-06-07T07:22:51.605Z,65.52
2023-06-07T07:25:19.243Z,64.43
2023-06-07T07:27:46.509Z,63.69
2023-06-07T07:30:14.440Z,61.91
2023-06-07T07:32:41.785Z,61.11
2023-06-07T07:35:09.591Z,59.91
2023-06-07T07:37:39.548Z,58.84
2023-06-07T07:40:10.577Z,58.87
2023-06-07T07:42:39.293Z,58.10
2023-06-07T07:45:08.411Z,57.94
2023-06-07T07:47:35.945Z,57.71
2023-06-07T07:50:05.763Z,56.82
2023-06-07T07:52:33.344Z,56.37
2023-06-07T07:55:02.201Z,56.23
2023-06-07T07:57:30.808Z,54.86
2023-06-07T07:59:58.511Z,54.25
2023-06-07T08:02:25.849Z,53.86
2023-06-07T08:04:55.027Z,53.45
2023-06-07T08:07:22.838Z,53.09
2023-06-07T08:09:50.494Z,52.59
2023-06-07T08:12:17.944Z,51.22
2023-06-07T08:14:45.702Z,49.75
2023-06-07T08:17:12.992Z,49.21
2023-06-07T08:19:41.045Z,48.71
2023-06-07T08:22:08.440Z,48.61
2023-06-07T08:24:36.105Z,47.86
2023-06-07T08:27:03.612Z,48.04
2023-06-07T08:29:31.340Z,49.14
2023-06-07T08:31:59.109Z,49.46
2023-06-07T08:34:31.694Z,47.82
2023-06-07T08:37:01.724Z,47.89
2023-06-07T08:39:30.030Z,46.62
2023-06-07T08:42:03.857Z,44.13
2023-06-07T08:44:31.559Z,44.45
2023-06-07T08:47:06.600Z,43.51
2023-06-07T08:49:35.048Z,42.69
2023-06-07T08:52:15.633Z,43.01
2023-06-07T08:54:48.424Z,42.71
2023-06-07T08:57:20.208Z,41.56
2023-06-07T08:59:49.795Z,41.32
2023-06-07T09:02:21.158Z,40.63
2023-06-07T09:04:48.927Z,40.84
2023-06-07T09:07:16.578Z,41.03
2023-06-07T09:09:45.118Z,40.69
2023-06-07T09:12:12.795Z,40.67
2023-06-07T09:14:41.409Z,40.68
2023-06-07T09:17:09.857Z,40.85
2023-06-07T09:19:42.751Z,41.31
2023-06-07T09:22:18.469Z,42.18
2023-06-07T09:24:46.269Z,42.65
2023-06-07T09:27:14.718Z,42.25
2023-06-07T09:29:44.587Z,42.89
2023-06-07T09:32:25.191Z,43.19
2023-06-07T09:35:11.245Z,42.61
2023-06-07T09:37:47.776Z,41.82
2023-06-07T09:40:16.521Z,41.58
2023-06-07T09:42:45.038Z,41.72
2023-06-07T09:45:17.101Z,41.41
2023-06-07T09:47:44.913Z,42.06
2023-06-07T09:50:14.806Z,41.67
2023-06-07T09:52:42.527Z,42.11
2023-06-07T09:55:28.659Z,42.47
2023-06-07T09:57:57.623Z,42.36
2023-06-07T10:00:27.279Z,40.99
2023-06-07T10:03:07.268Z,39.80
2023-06-07T10:05:36.204Z,39.95
2023-06-07T10:08:05.998Z,40.47
2023-06-07T10:10:36.316Z,38.81
2023-06-07T10:13:06.949Z,38.72
2023-06-07T10:15:37.085Z,38.25
2023-06-07T10:18:25.513Z,38.32
2023-06-07T10:21:02.064Z,38.76
2023-06-07T10:24:08.527Z,37.84
2023-06-07T10:27:00.978Z,39.15
2023-06-07T10:29:47.252Z,38.87
2023-06-07T10:32:31.631Z,38.60
2023-06-07T10:35:02.144Z,37.80
2023-06-07T10:37:32.260Z,37.96
2023-06-07T10:40:07.270Z,38.91
2023-06-07T10:42:35.374Z,39.09
2023-06-07T10:45:02.958Z,38.79
2023-06-07T10:47:33.739Z,39.44
2023-06-07T10:50:01.697Z,38.90
2023-06-07T10:52:29.530Z,39.22
2023-06-07T10:54:57.119Z,38.80
2023-06-07T10:57:39.244Z,39.22
2023-06-07T11:00:32.706Z,38.66
2023-06-07T11:03:06.401Z,38.17
2023-06-07T11:06:07.831Z,39.26
2023-06-07T11:08:38.249Z,39.75
2023-06-07T11:11:41.373Z,40.44
2023-06-07T11:14:08.931Z,40.90
2023-06-07T11:16:36.825Z,40.91
2023-06-07T11:19:11.244Z,41.15
2023-06-07T11:21:57.101Z,41.83
2023-06-07T11:24:25.839Z,42.21
2023-06-07T11:26:53.488Z,42.35
2023-06-07T11:29:22.195Z,41.87
2023-06-07T11:32:02.194Z,40.52
2023-06-07T11:34:32.760Z,39.80
2023-06-07T11:37:15.797Z,39.24
2023-06-07T11:39:44.246Z,38.64
2023-06-07T11:42:11.691Z,38.75
2023-06-07T11:44:39.989Z,38.64
2023-06-07T11:47:08.533Z,37.51
2023-06-07T11:49:42.164Z,37.69
2023-06-07T11:52:09.882Z,37.57
2023-06-07T11:54:43.507Z,38.06
2023-06-07T11:57:11.326Z,39.08
2023-06-07T11:59:40.810Z,38.29
2023-06-07T12:02:09.856Z,37.19
2023-06-07T12:04:38.315Z,37.63
2023-06-07T12:07:19.672Z,37.48
2023-06-07T12:09:50.802Z,37.62
2023-06-07T12:12:18.142Z,37.59
2023-06-07T12:14:48.363Z,36.91
2023-06-07T12:17:15.780Z,36.63
2023-06-07T12:19:43.718Z,37.74
2023-06-07T12:22:11.015Z,38.25
2023-06-07T12:24:41.682Z,38.36
2023-06-07T12:27:13.314Z,38.96
2023-06-07T12:29:42.310Z,38.76
2023-06-07T12:32:11.314Z,38.61
2023-06-07T12:34:45.444Z,38.25
2023-06-07T12:37:12.928Z,37.61
2023-06-07T12:39:40.961Z,37.60
2023-06-07T12:42:08.959Z,37.60
2023-06-07T12:44:36.594Z,38.35
2023-06-07T12:47:04.140Z,37.43
2023-06-07T12:49:32.695Z,37.46
2023-06-07T12:52:00.073Z,37.61
2023-06-07T12:54:27.982Z,37.63
2023-06-07T12:56:55.776Z,38.85
2023-06-07T12:59:23.384Z,39.56
2023-06-07T13:01:51.023Z,39.92
2023-06-07T13:04:18.715Z,39.49
2023-06-07T13:06:46.121Z,39.76
2023-06-07T13:09:13.831Z,39.19
2023-06-07T13:11:43.202Z,39.41
2023-06-07T13:14:11.123Z,37.92
2023-06-07T13:16:38.975Z,38.29
2023-06-07T13:19:06.901Z,38.80
2023-06-07T13:21:34.249Z,38.44
2023-06-07T13:24:01.960Z,38.71
2023-06-07T13:26:29.683Z,38.89
2023-06-07T13:28:57.399Z,38.76
2023-06-07T13:31:26.620Z,38.57
2023-06-07T13:33:54.550Z,39.11
2023-06-07T13:36:21.868Z,38.98
2023-06-07T13:38:50.068Z,39.29
2023-06-07T13:41:17.388Z,38.69
2023-06-07T13:43:59.964Z,39.25
2023-06-07T13:46:35.691Z,39.76
2023-06-07T13:49:03.375Z,39.26
2023-06-07T13:51:30.796Z,39.81
2023-06-07T13:53:58.736Z,39.91
2023-06-07T13:56:27.222Z,39.83
2023-06-07T13:58:59.037Z,39.69
2023-06-07T14:01:28.303Z,39.00
2023-06-07T14:03:57.094Z,39.30
2023-06-07T14:06:24.715Z,39.32
2023-06-07T14:08:52.339Z,39.27
2023-06-07T14:11:19.818Z,39.18
2023-06-07T14:13:47.436Z,39.52
2023-06-07T14:16:14.786Z,40.61
2023-06-07T14:18:42.387Z,41.06
2023-06-07T14:21:09.884Z,41.17
2023-06-07T14:23:37.499Z,41.25
2023-06-07T14:26:04.874Z,41.26
2023-06-07T14:28:32.587Z,41.56
2023-06-07T14:31:01.327Z,42.57
2023-06-07T14:33:29.115Z,42.24
2023-06-07T14:35:56.491Z,41.76
2023-06-07T14:38:24.522Z,41.56
2023-06-07T14:40:51.920Z,41.48
2023-06-07T14:43:19.494Z,42.21
2023-06-07T14:45:46.842Z,41.68
2023-06-07T14:48:14.633Z,41.64
2023-06-07T14:50:41.937Z,41.57
2023-06-07T14:53:09.594Z,41.79
2023-06-07T14:55:36.939Z,41.83
2023-06-07T14:58:05.968Z,41.65
2023-06-07T15:00:34.850Z,41.70
2023-06-07T15:03:02.582Z,41.77
2023-06-07T15:05:30.536Z,42.04
2023-06-07T15:07:58.142Z,42.53
2023-06-07T15:10:25.464Z,42.31
2023-06-07T15:12:53.192Z,42.82
2023-06-07T15:15:22.268Z,43.56
2023-06-07T15:17:52.079Z,44.00
2023-06-07T15:20:21.104Z,44.53
2023-06-07T15:22:48.814Z,44.78
2023-06-07T15:25:16.235Z,45.12
2023-06-07T15:27:43.992Z,45.31
2023-06-07T15:30:13.110Z,45.66
2023-06-07T15:32:40.824Z,45.45
2023-06-07T15:35:10.900Z,45.77
2023-06-07T15:37:40.892Z,46.04
2023-06-07T15:40:09.214Z,45.75
2023-06-07T15:42:39.466Z,46.03
2023-06-07T15:45:07.847Z,46.27
2023-06-07T15:47:35.638Z,46.62
2023-06-07T15:50:03.390Z,47.27
2023-06-07T15:52:31.308Z,47.73
2023-06-07T15:54:58.621Z,48.01
2023-06-07T15:57:26.181Z,47.94
2023-06-07T15:59:53.547Z,48.05
2023-06-07T16:02:21.125Z,48.36
2023-06-07T16:04:48.608Z,48.11
2023-06-07T16:07:16.264Z,48.75
2023-06-07T16:09:43.572Z,48.88
2023-06-07T16:12:12.222Z,49.08
2023-06-07T16:14:41.611Z,49.50
2023-06-07T16:17:09.309Z,49.81
2023-06-07T16:19:37.801Z,49.95
2023-06-07T16:22:05.593Z,50.05
2023-06-07T16:24:32.901Z,50.40
2023-06-07T16:27:00.866Z,50.30
2023-06-07T16:29:28.178Z,50.37
2023-06-07T16:31:55.889Z,50.94
2023-06-07T16:34:23.284Z,51.23
2023-06-07T16:36:50.977Z,51.20
2023-06-07T16:39:18.249Z,51.35
2023-06-07T16:41:45.880Z,51.90
2023-06-07T16:44:13.656Z,52.02
2023-06-07T16:46:43.136Z,52.79
2023-06-07T16:49:12.466Z,52.90
2023-06-07T16:51:40.233Z,53.52
2023-06-07T16:54:07.580Z,53.77
2023-06-07T16:56:35.277Z,53.99
2023-06-07T16:59:02.609Z,54.37
2023-06-07T17:01:32.322Z,54.62
2023-06-07T17:04:00.315Z,55.21
2023-06-07T17:06:27.933Z,55.56
2023-06-07T17:08:55.656Z,55.64
2023-06-07T17:11:23.266Z,55.67
2023-06-07T17:13:50.592Z,56.17
2023-06-07T17:16:18.376Z,56.26
2023-06-07T17:18:45.794Z,56.31
2023-06-07T17:21:13.825Z,56.59
2023-06-07T17:23:41.917Z,56.65
2023-06-07T17:26:10.113Z,56.72
2023-06-07T17:28:37.423Z,57.04
2023-06-07T17:31:05.428Z,57.04
2023-06-07T17:33:32.994Z,57.62
2023-06-07T17:36:00.620Z,57.94
2023-06-07T17:38:27.979Z,58.16
2023-06-07T17:40:55.548Z,58.66
2023-06-07T17:43:22.876Z,59.00
2023-06-07T17:45:51.142Z,59.63
2023-06-07T17:48:18.924Z,59.62
2023-06-07T17:50:47.608Z,59.97
2023-06-07T17:53:15.571Z,60.46
2023-06-07T17:55:46.448Z,60.69
2023-06-07T17:58:14.523Z,60.53
2023-06-07T18:00:42.336Z,60.45
2023-06-07T18:03:12.835Z,61.05
2023-06-07T18:05:40.795Z,61.18
2023-06-07T18:08:08.292Z,61.49
2023-06-07T18:10:35.909Z,61.43
2023-06-07T18:13:04.625Z,61.70
2023-06-07T18:15:32.742Z,61.80
2023-06-07T18:18:00.191Z,62.28
2023-06-07T18:20:28.316Z,62.69
2023-06-07T18:22:57.955Z,63.62
2023-06-07T18:25:25.818Z,63.97
2023-06-07T18:27:53.326Z,63.70
2023-06-07T18:30:20.894Z,64.13
2023-06-07T18:32:49.590Z,64.34
2023-06-07T18:35:17.264Z,64.76
2023-06-07T18:37:44.568Z,65.20
2023-06-07T18:40:12.548Z,65.71
2023-06-07T18:42:39.994Z,66.17
2023-06-07T18:45:08.964Z,66.76
2023-06-07T18:47:36.494Z,67.23
2023-06-07T18:50:05.433Z,67.55
2023-06-07T18:52:33.471Z,67.93
2023-06-07T18:55:01.094Z,68.53
2023-06-07T18:57:28.421Z,68.95
2023-06-07T18:59:56.044Z,69.44
2023-06-07T19:02:24.970Z,69.62
2023-06-07T19:04:52.896Z,69.90
2023-06-07T19:07:20.389Z,69.68
2023-06-07T19:09:48.275Z,70.32
2023-06-07T19:12:15.722Z,70.63
2023-06-07T19:14:43.676Z,71.18
2023-06-07T19:17:12.029Z,71.85
2023-06-07T19:19:40.227Z,72.38
2023-06-07T19:22:10.697Z,72.64
2023-06-07T19:24:44.129Z,72.67
2023-06-07T19:27:12.784Z,72.57
2023-06-07T19:29:42.265Z,72.98
2023-06-07T19:32:10.766Z,73.00
2023-06-07T19:34:38.408Z,73.22
2023-06-07T19:37:06.791Z,73.17
2023-06-07T19:39:34.512Z,72.89
2023-06-07T19:42:07.987Z,72.92
2023-06-07T19:44:38.985Z,73.33
2023-06-07T19:47:08.103Z,73.63
2023-06-07T19:49:36.394Z,73.87
2023-06-07T19:52:04.161Z,74.20
2023-06-07T19:54:31.973Z,74.41
2023-06-07T19:56:59.675Z,74.97
2023-06-07T19:59:27.345Z,75.02
2023-06-07T20:01:55.338Z,75.29
2023-06-07T20:04:22.961Z,75.84
2023-06-07T20:06:50.278Z,75.97
2023-06-07T20:09:17.863Z,76.21
2023-06-07T20:11:45.140Z,76.38
2023-06-07T20:14:13.454Z,76.27
2023-06-07T20:16:40.821Z,76.58
2023-06-07T20:19:08.432Z,76.43
2023-06-07T20:21:37.235Z,76.56
2023-06-07T20:24:05.979Z,77.00
2023-06-07T20:26:33.305Z,76.96
2023-06-07T20:29:02.582Z,77.00
2023-06-07T20:31:30.045Z,76.90
2023-06-07T20:33:57.685Z,76.82
2023-06-07T20:36:27.173Z,76.89
2023-06-07T20:38:54.823Z,77.05
2023-06-07T20:41:22.068Z,76.78
2023-06-07T20:43:49.719Z,77.04
2023-06-07T20:46:17.129Z,76.85
2023-06-07T20:48:44.814Z,76.81
2023-06-07T20:51:12.103Z,76.70
2023-06-07T20:53:39.773Z,76.99
2023-06-07T20:56:07.205Z,77.06
2023-06-07T20:58:34.825Z,76.93
2023-06-07T21:01:02.110Z,77.09
2023-06-07T21:03:29.888Z,77.18
2023-06-07T21:05:57.437Z,77.13
2023-06-07T21:08:25.036Z,76.82
2023-06-07T21:10:52.358Z,77.10
2023-06-07T21:13:20.032Z,77.20
2023-06-07T21:15:47.463Z,77.21
2023-06-07T21:18:15.202Z,77.28
2023-06-07T21:20:42.486Z,77.01
2023-06-07T21:23:12.268Z,77.01
2023-06-07T21:25:40.605Z,77.00
2023-06-07T21:28:08.262Z,76.65
2023-06-07T21:30:35.878Z,77.28
2023-06-07T21:33:05.058Z,77.16
2023-06-07T21:35:33.243Z,77.03
2023-06-07T21:38:01.287Z,76.98
2023-06-07T21:40:28.764Z,76.64
2023-06-07T21:42:56.494Z,76.77
2023-06-07T21:45:27.820Z,76.44
2023-06-07T21:47:55.692Z,76.42
2023-06-07T21:50:23.211Z,76.47
2023-06-07T21:52:52.026Z,76.45
2023-06-07T21:55:19.332Z,76.54
2023-06-07T21:57:47.960Z,76.17
2023-06-07T22:00:16.397Z,76.15
2023-06-07T22:02:44.065Z,76.28
2023-06-07T22:05:11.470Z,76.53
2023-06-07T22:07:40.081Z,76.61
2023-06-07T22:10:08.124Z,76.77
2023-06-07T22:12:38.083Z,77.83
2023-06-07T22:15:06.116Z,77.73
2023-06-07T22:17:34.566Z,78.34
2023-06-07T22:20:09.642Z,78.08
2023-06-07T22:22:37.632Z,77.92
2023-06-07T22:25:05.634Z,77.91
2023-06-07T22:27:34.096Z,78.27
2023-06-07T22:30:01.506Z,77.79
2023-06-07T22:32:30.215Z,77.82
2023-06-07T22:35:05.481Z,77.77
2023-06-07T22:37:36.896Z,78.11
2023-06-07T22:40:06.570Z,78.10
2023-06-07T22:42:35.272Z,77.97
2023-06-07T22:45:03.723Z,78.28
2023-06-07T22:47:31.580Z,78.21
2023-06-07T22:50:01.970Z,77.88
2023-06-07T22:52:33.908Z,77.72
2023-06-07T22:55:02.457Z,77.73
2023-06-07T22:57:32.099Z,77.76
2023-06-07T22:59:59.487Z,78.22
2023-06-07T23:02:30.014Z,78.41
2023-06-07T23:04:57.697Z,78.24
2023-06-07T23:07:25.463Z,78.18
2023-06-07T23:09:52.857Z,78.26
2023-06-07T23:12:21.332Z,78.52
2023-06-07T23:14:49.749Z,78.94
2023-06-07T23:17:18.609Z,78.85
2023-06-07T23:19:46.719Z,78.53
2023-06-07T23:22:14.305Z,78.62
2023-06-07T23:24:42.161Z,78.50
2023-06-07T23:27:09.750Z,78.95
2023-06-07T23:29:37.104Z,79.03
2023-06-07T23:32:05.784Z,79.07
2023-06-07T23:34:34.723Z,79.04
2023-06-07T23:37:02.374Z,79.06
2023-06-07T23:39:29.655Z,78.66
2023-06-07T23:41:57.465Z,78.73
2023-06-07T23:44:28.930Z,78.78
2023-06-07T23:46:57.073Z,78.54
2023-06-07T23:49:35.602Z,78.73
2023-06-07T23:52:04.274Z,79.00
2023-06-07T23:54:31.666Z,78.94
2023-06-07T23:57:00.304Z,79.17
2023-06-07T23:59:27.888Z,79.36
